QTR40N YMML-YPAD
Flight info
| Callsign | QTR40N |
|---|---|
| Flight time | 1h 1m |
| Altitude | 32000 |
| Route | PEDNI H345 DRINA |
| Aircraft | B77W/H-SDE1E2E3FGHIJ2J3J4J5M1RWXY/LB1D1 |
Departure
| Time | 2026-05-06 15:47 |
|---|---|
| Airport | Melbourne Airport (YMML) |
Arrival
| Time | 2026-05-06 16:49 |
|---|---|
| Airport | Adelaide International Airport (YPAD) |
| Time | Latitude | Longitude | Altitude | Speed | Heading |
|---|---|---|---|---|---|
| 2026-05-06 15:33 | -37.66728 | 144.84538 | 402 ft | 0 kts | 172° |
| 2026-05-06 15:41 | -37.66715 | 144.84536 | 399 ft | 4 kts | 169° |
| 2026-05-06 15:42 | -37.66689 | 144.84528 | 400 ft | 4 kts | 154° |
| 2026-05-06 15:42 | -37.66670 | 144.84509 | 400 ft | 4 kts | 110° |
| 2026-05-06 15:42 | -37.66667 | 144.84495 | 400 ft | 2 kts | 78° |
| 2026-05-06 15:44 | -37.66667 | 144.84496 | 400 ft | 0 kts | 78° |
| 2026-05-06 15:44 | -37.66662 | 144.84540 | 400 ft | 10 kts | 82° |
| 2026-05-06 15:45 | -37.66652 | 144.84624 | 402 ft | 10 kts | 81° |
| 2026-05-06 15:45 | -37.66641 | 144.84708 | 406 ft | 10 kts | 76° |
| 2026-05-06 15:45 | -37.66605 | 144.84778 | 408 ft | 10 kts | 32° |
| 2026-05-06 15:45 | -37.66539 | 144.84790 | 408 ft | 10 kts | 353° |
| 2026-05-06 15:46 | -37.66467 | 144.84778 | 410 ft | 14 kts | 357° |
| 2026-05-06 15:46 | -37.66363 | 144.84784 | 411 ft | 15 kts | 3° |
| 2026-05-06 15:46 | -37.66259 | 144.84785 | 412 ft | 15 kts | 343° |
| 2026-05-06 15:46 | -37.66220 | 144.84652 | 412 ft | 26 kts | 273° |
| 2026-05-06 15:47 | -37.66184 | 144.84078 | 409 ft | 107 kts | 275° |
| 2026-05-06 15:47 | -37.66107 | 144.82859 | 543 ft | 158 kts | 272° |
| 2026-05-06 15:47 | -37.66060 | 144.81460 | 1403 ft | 159 kts | 268° |
| 2026-05-06 15:47 | -37.66010 | 144.80170 | 2641 ft | 144 kts | 269° |
| 2026-05-06 15:48 | -37.65923 | 144.78859 | 3172 ft | 162 kts | 270° |
| 2026-05-06 15:48 | -37.65819 | 144.77297 | 3491 ft | 194 kts | 270° |
| 2026-05-06 15:48 | -37.65702 | 144.75500 | 3980 ft | 217 kts | 269° |
| 2026-05-06 15:48 | -37.65578 | 144.73549 | 4793 ft | 228 kts | 268° |
| 2026-05-06 15:49 | -37.65454 | 144.71519 | 5666 ft | 236 kts | 268° |
| 2026-05-06 15:49 | -37.65332 | 144.69442 | 6659 ft | 239 kts | 268° |
| 2026-05-06 15:49 | -37.65208 | 144.67332 | 7593 ft | 244 kts | 268° |
| 2026-05-06 15:49 | -37.65013 | 144.65189 | 8452 ft | 251 kts | 277° |
| 2026-05-06 15:50 | -37.64451 | 144.63040 | 9292 ft | 262 kts | 285° |
| 2026-05-06 15:50 | -37.63756 | 144.60904 | 10262 ft | 265 kts | 286° |
| 2026-05-06 15:50 | -37.63023 | 144.58712 | 10852 ft | 282 kts | 287° |
| 2026-05-06 15:50 | -37.62226 | 144.56303 | 11095 ft | 313 kts | 287° |
| 2026-05-06 15:51 | -37.61360 | 144.53677 | 11662 ft | 331 kts | 287° |
| 2026-05-06 15:51 | -37.60462 | 144.50954 | 12668 ft | 339 kts | 288° |
| 2026-05-06 15:51 | -37.59554 | 144.48197 | 13884 ft | 343 kts | 288° |
| 2026-05-06 15:51 | -37.58639 | 144.45406 | 14989 ft | 346 kts | 287° |
| 2026-05-06 15:52 | -37.57721 | 144.42595 | 16148 ft | 348 kts | 287° |
| 2026-05-06 15:52 | -37.56798 | 144.39757 | 17267 ft | 352 kts | 287° |
| 2026-05-06 15:52 | -37.55866 | 144.36883 | 18352 ft | 356 kts | 286° |
| 2026-05-06 15:52 | -37.54923 | 144.33975 | 19287 ft | 360 kts | 286° |
| 2026-05-06 15:53 | -37.53972 | 144.31041 | 20239 ft | 363 kts | 286° |
| 2026-05-06 15:53 | -37.53012 | 144.28080 | 21202 ft | 367 kts | 286° |
| 2026-05-06 15:53 | -37.52372 | 144.26107 | 21814 ft | 369 kts | 287° |
| 2026-05-06 15:53 | -37.51377 | 144.23054 | 22675 ft | 374 kts | 285° |
| 2026-05-06 15:54 | -37.50388 | 144.20018 | 23611 ft | 377 kts | 285° |
| 2026-05-06 15:54 | -37.49402 | 144.16984 | 24324 ft | 382 kts | 285° |
| 2026-05-06 15:54 | -37.48389 | 144.13867 | 24991 ft | 387 kts | 285° |
| 2026-05-06 15:54 | -37.47361 | 144.10710 | 25634 ft | 392 kts | 285° |
| 2026-05-06 15:55 | -37.46317 | 144.07511 | 26287 ft | 397 kts | 285° |
| 2026-05-06 15:55 | -37.45261 | 144.04284 | 26929 ft | 402 kts | 286° |
| 2026-05-06 15:55 | -37.44189 | 144.01008 | 27549 ft | 406 kts | 286° |
| 2026-05-06 15:55 | -37.43107 | 143.97708 | 28196 ft | 410 kts | 286° |
| 2026-05-06 15:56 | -37.42018 | 143.94397 | 29031 ft | 409 kts | 286° |
| 2026-05-06 15:56 | -37.40930 | 143.91096 | 29939 ft | 407 kts | 286° |
| 2026-05-06 15:56 | -37.39846 | 143.87808 | 30695 ft | 406 kts | 286° |
| 2026-05-06 15:56 | -37.38766 | 143.84530 | 31398 ft | 405 kts | 287° |
| 2026-05-06 15:57 | -37.37683 | 143.81245 | 31881 ft | 408 kts | 287° |
| 2026-05-06 15:57 | -37.36594 | 143.77939 | 31900 ft | 410 kts | 287° |
| 2026-05-06 15:57 | -37.34423 | 143.71382 | 31902 ft | 403 kts | 286° |
| 2026-05-06 15:58 | -37.32264 | 143.64862 | 31919 ft | 405 kts | 286° |
| 2026-05-06 15:58 | -37.30091 | 143.58307 | 31938 ft | 409 kts | 286° |
| 2026-05-06 15:59 | -37.27892 | 143.51691 | 31936 ft | 412 kts | 286° |
| 2026-05-06 15:59 | -37.25667 | 143.45032 | 31920 ft | 413 kts | 285° |
| 2026-05-06 16:00 | -37.23456 | 143.38411 | 31930 ft | 414 kts | 285° |
| 2026-05-06 16:00 | -37.21225 | 143.31746 | 31933 ft | 414 kts | 285° |
| 2026-05-06 16:01 | -37.19010 | 143.25089 | 31895 ft | 413 kts | 284° |
| 2026-05-06 16:01 | -37.16962 | 143.18413 | 31937 ft | 409 kts | 283° |
| 2026-05-06 16:02 | -37.15957 | 143.15061 | 32074 ft | 413 kts | 283° |
| 2026-05-06 16:02 | -37.14942 | 143.11674 | 32238 ft | 417 kts | 283° |
| 2026-05-06 16:02 | -37.12903 | 143.04968 | 32233 ft | 406 kts | 283° |
| 2026-05-06 16:03 | -37.10884 | 142.98383 | 32209 ft | 405 kts | 282° |
| 2026-05-06 16:03 | -37.08861 | 142.91791 | 32251 ft | 406 kts | 282° |
| 2026-05-06 16:04 | -37.06829 | 142.85186 | 32252 ft | 407 kts | 282° |
| 2026-05-06 16:04 | -37.04787 | 142.78573 | 32235 ft | 408 kts | 282° |
| 2026-05-06 16:05 | -37.02740 | 142.71964 | 32243 ft | 406 kts | 282° |
| 2026-05-06 16:05 | -37.00694 | 142.65372 | 32257 ft | 406 kts | 282° |
| 2026-05-06 16:06 | -36.98645 | 142.58785 | 32257 ft | 406 kts | 282° |
| 2026-05-06 16:06 | -36.96594 | 142.52207 | 32193 ft | 406 kts | 281° |
| 2026-05-06 16:07 | -36.94546 | 142.45655 | 32256 ft | 404 kts | 282° |
| 2026-05-06 16:07 | -36.92511 | 142.39154 | 32261 ft | 404 kts | 282° |
| 2026-05-06 16:08 | -36.90460 | 142.32619 | 32269 ft | 405 kts | 282° |
| 2026-05-06 16:08 | -36.88399 | 142.26065 | 32230 ft | 405 kts | 281° |
| 2026-05-06 16:09 | -36.86335 | 142.19519 | 32269 ft | 406 kts | 281° |
| 2026-05-06 16:09 | -36.84263 | 142.12956 | 32280 ft | 407 kts | 281° |
| 2026-05-06 16:10 | -36.82180 | 142.06382 | 32282 ft | 408 kts | 282° |
| 2026-05-06 16:10 | -36.80090 | 141.99802 | 32278 ft | 407 kts | 281° |
| 2026-05-06 16:11 | -36.77998 | 141.93228 | 32281 ft | 408 kts | 281° |
| 2026-05-06 16:11 | -36.75902 | 141.86657 | 32288 ft | 408 kts | 281° |
| 2026-05-06 16:12 | -36.73803 | 141.80089 | 32231 ft | 407 kts | 282° |
| 2026-05-06 16:12 | -36.71701 | 141.73530 | 32282 ft | 408 kts | 282° |
| 2026-05-06 16:13 | -36.69591 | 141.66953 | 32297 ft | 410 kts | 282° |
| 2026-05-06 16:13 | -36.67467 | 141.60352 | 32295 ft | 411 kts | 282° |
| 2026-05-06 16:14 | -36.65332 | 141.53733 | 32303 ft | 412 kts | 282° |
| 2026-05-06 16:14 | -36.63187 | 141.47102 | 32306 ft | 413 kts | 282° |
| 2026-05-06 16:15 | -36.61044 | 141.40491 | 32301 ft | 412 kts | 282° |
| 2026-05-06 16:15 | -36.58897 | 141.33881 | 32257 ft | 411 kts | 282° |
| 2026-05-06 16:16 | -36.56765 | 141.27332 | 32303 ft | 411 kts | 282° |
| 2026-05-06 16:16 | -36.54611 | 141.20720 | 32311 ft | 414 kts | 282° |
| 2026-05-06 16:17 | -36.52440 | 141.14076 | 32311 ft | 416 kts | 282° |
| 2026-05-06 16:17 | -36.50256 | 141.07412 | 32295 ft | 417 kts | 282° |
| 2026-05-06 16:18 | -36.48059 | 141.00725 | 32316 ft | 418 kts | 282° |
| 2026-05-06 16:18 | -36.45853 | 140.94023 | 32322 ft | 420 kts | 283° |
| 2026-05-06 16:19 | -36.43641 | 140.87318 | 32279 ft | 420 kts | 283° |
| 2026-05-06 16:19 | -36.41424 | 140.80611 | 32321 ft | 420 kts | 283° |
| 2026-05-06 16:20 | -36.38909 | 140.74001 | 32326 ft | 430 kts | 291° |
| 2026-05-06 16:20 | -36.35397 | 140.67876 | 32338 ft | 440 kts | 299° |
| 2026-05-06 16:21 | -36.31577 | 140.61927 | 32313 ft | 440 kts | 299° |
| 2026-05-06 16:21 | -36.27796 | 140.56019 | 32328 ft | 441 kts | 299° |
| 2026-05-06 16:22 | -36.23998 | 140.50047 | 32332 ft | 441 kts | 299° |
| 2026-05-06 16:22 | -36.20198 | 140.44067 | 32334 ft | 442 kts | 299° |
| 2026-05-06 16:23 | -36.16390 | 140.38086 | 32327 ft | 442 kts | 299° |
| 2026-05-06 16:23 | -36.12579 | 140.32111 | 32325 ft | 443 kts | 299° |
| 2026-05-06 16:24 | -36.08757 | 140.26130 | 32337 ft | 443 kts | 299° |
| 2026-05-06 16:24 | -36.06858 | 140.23168 | 32155 ft | 437 kts | 299° |
| 2026-05-06 16:24 | -36.04972 | 140.20237 | 31686 ft | 434 kts | 299° |
| 2026-05-06 16:25 | -36.03102 | 140.17334 | 31218 ft | 428 kts | 300° |
| 2026-05-06 16:25 | -36.01256 | 140.14468 | 30810 ft | 424 kts | 300° |
| 2026-05-06 16:25 | -35.99431 | 140.11635 | 30368 ft | 419 kts | 300° |
| 2026-05-06 16:25 | -35.97629 | 140.08835 | 29870 ft | 415 kts | 300° |
| 2026-05-06 16:26 | -35.95843 | 140.06063 | 29425 ft | 410 kts | 300° |
| 2026-05-06 16:26 | -35.94073 | 140.03320 | 28965 ft | 406 kts | 300° |
| 2026-05-06 16:26 | -35.92324 | 140.00611 | 28543 ft | 401 kts | 300° |
| 2026-05-06 16:26 | -35.90595 | 139.97933 | 28101 ft | 397 kts | 300° |
| 2026-05-06 16:27 | -35.88881 | 139.95280 | 27659 ft | 394 kts | 300° |
| 2026-05-06 16:27 | -35.87183 | 139.92653 | 27250 ft | 390 kts | 300° |
| 2026-05-06 16:27 | -35.85519 | 139.90082 | 26840 ft | 387 kts | 300° |
| 2026-05-06 16:27 | -35.83848 | 139.87501 | 26430 ft | 384 kts | 300° |
| 2026-05-06 16:28 | -35.82187 | 139.84938 | 26018 ft | 382 kts | 300° |
| 2026-05-06 16:28 | -35.80535 | 139.82390 | 25613 ft | 379 kts | 300° |
| 2026-05-06 16:28 | -35.78894 | 139.79860 | 25203 ft | 377 kts | 300° |
| 2026-05-06 16:28 | -35.77260 | 139.77344 | 24798 ft | 375 kts | 300° |
| 2026-05-06 16:29 | -35.75631 | 139.74839 | 24404 ft | 374 kts | 300° |
| 2026-05-06 16:29 | -35.74010 | 139.72347 | 23965 ft | 372 kts | 300° |
| 2026-05-06 16:29 | -35.72397 | 139.69869 | 23543 ft | 370 kts | 300° |
| 2026-05-06 16:29 | -35.70799 | 139.67419 | 23220 ft | 364 kts | 300° |
| 2026-05-06 16:30 | -35.69219 | 139.64998 | 22834 ft | 361 kts | 300° |
| 2026-05-06 16:30 | -35.68178 | 139.63403 | 22582 ft | 360 kts | 300° |
| 2026-05-06 16:30 | -35.66089 | 139.60201 | 22044 ft | 357 kts | 300° |
| 2026-05-06 16:30 | -35.64539 | 139.57828 | 21651 ft | 355 kts | 300° |
| 2026-05-06 16:31 | -35.62994 | 139.55463 | 21260 ft | 354 kts | 300° |
| 2026-05-06 16:31 | -35.61456 | 139.53112 | 20864 ft | 352 kts | 300° |
| 2026-05-06 16:31 | -35.59925 | 139.50771 | 20461 ft | 351 kts | 300° |
| 2026-05-06 16:31 | -35.58398 | 139.48440 | 20078 ft | 350 kts | 301° |
| 2026-05-06 16:32 | -35.56876 | 139.46119 | 19690 ft | 349 kts | 301° |
| 2026-05-06 16:32 | -35.55357 | 139.43802 | 19299 ft | 348 kts | 301° |
| 2026-05-06 16:32 | -35.53841 | 139.41492 | 18911 ft | 347 kts | 301° |
| 2026-05-06 16:32 | -35.52325 | 139.39185 | 18500 ft | 346 kts | 301° |
| 2026-05-06 16:33 | -35.50819 | 139.36892 | 18058 ft | 345 kts | 301° |
| 2026-05-06 16:33 | -35.49309 | 139.34598 | 17632 ft | 344 kts | 301° |
| 2026-05-06 16:33 | -35.47810 | 139.32321 | 17238 ft | 342 kts | 301° |
| 2026-05-06 16:34 | -35.44836 | 139.27804 | 16461 ft | 339 kts | 301° |
| 2026-05-06 16:34 | -35.43357 | 139.25563 | 16082 ft | 337 kts | 301° |
| 2026-05-06 16:34 | -35.41743 | 139.23534 | 15685 ft | 344 kts | 316° |
| 2026-05-06 16:34 | -35.39556 | 139.22226 | 15334 ft | 352 kts | 332° |
| 2026-05-06 16:35 | -35.37251 | 139.21201 | 14959 ft | 352 kts | 332° |
| 2026-05-06 16:35 | -35.34951 | 139.20170 | 14580 ft | 352 kts | 332° |
| 2026-05-06 16:35 | -35.32655 | 139.19128 | 14192 ft | 352 kts | 332° |
| 2026-05-06 16:35 | -35.30354 | 139.18073 | 13764 ft | 353 kts | 332° |
| 2026-05-06 16:36 | -35.28060 | 139.17015 | 13347 ft | 352 kts | 332° |
| 2026-05-06 16:36 | -35.25770 | 139.15955 | 12956 ft | 351 kts | 332° |
| 2026-05-06 16:36 | -35.23488 | 139.14897 | 12562 ft | 351 kts | 332° |
| 2026-05-06 16:36 | -35.21209 | 139.13840 | 12183 ft | 350 kts | 332° |
| 2026-05-06 16:37 | -35.18935 | 139.12786 | 11795 ft | 349 kts | 332° |
| 2026-05-06 16:37 | -35.16662 | 139.11734 | 11412 ft | 349 kts | 332° |
| 2026-05-06 16:37 | -35.14388 | 139.10682 | 11023 ft | 349 kts | 332° |
| 2026-05-06 16:37 | -35.12124 | 139.09637 | 10673 ft | 347 kts | 332° |
| 2026-05-06 16:38 | -35.09891 | 139.08610 | 10526 ft | 338 kts | 333° |
| 2026-05-06 16:38 | -35.07724 | 139.07607 | 10371 ft | 326 kts | 330° |
| 2026-05-06 16:38 | -35.05882 | 139.06225 | 10137 ft | 296 kts | 309° |
| 2026-05-06 16:38 | -35.04410 | 139.04493 | 9757 ft | 296 kts | 308° |
| 2026-05-06 16:39 | -35.02922 | 139.02776 | 9442 ft | 296 kts | 309° |
| 2026-05-06 16:39 | -35.01422 | 139.01068 | 9041 ft | 298 kts | 309° |
| 2026-05-06 16:39 | -34.99938 | 138.99395 | 8734 ft | 284 kts | 309° |
| 2026-05-06 16:39 | -34.98485 | 138.97767 | 8147 ft | 281 kts | 309° |
| 2026-05-06 16:40 | -34.97063 | 138.96175 | 7657 ft | 275 kts | 309° |
| 2026-05-06 16:40 | -34.95672 | 138.94620 | 7252 ft | 267 kts | 309° |
| 2026-05-06 16:40 | -34.94307 | 138.93089 | 7001 ft | 265 kts | 309° |
| 2026-05-06 16:40 | -34.93416 | 138.92092 | 6894 ft | 261 kts | 309° |
| 2026-05-06 16:41 | -34.92092 | 138.90614 | 6735 ft | 254 kts | 309° |
| 2026-05-06 16:41 | -34.90808 | 138.89179 | 6561 ft | 248 kts | 309° |
| 2026-05-06 16:41 | -34.89547 | 138.87767 | 6305 ft | 245 kts | 310° |
| 2026-05-06 16:41 | -34.87884 | 138.85908 | 5894 ft | 246 kts | 310° |
| 2026-05-06 16:42 | -34.86618 | 138.84491 | 5555 ft | 248 kts | 311° |
| 2026-05-06 16:42 | -34.85351 | 138.83077 | 5313 ft | 247 kts | 311° |
| 2026-05-06 16:42 | -34.84495 | 138.82124 | 5179 ft | 246 kts | 311° |
| 2026-05-06 16:42 | -34.83224 | 138.80704 | 4737 ft | 255 kts | 312° |
| 2026-05-06 16:43 | -34.81892 | 138.79216 | 4340 ft | 259 kts | 312° |
| 2026-05-06 16:43 | -34.80743 | 138.77637 | 4157 ft | 237 kts | 290° |
| 2026-05-06 16:43 | -34.80427 | 138.75821 | 4048 ft | 208 kts | 254° |
| 2026-05-06 16:43 | -34.80919 | 138.74336 | 3934 ft | 180 kts | 233° |
| 2026-05-06 16:44 | -34.81567 | 138.73087 | 3894 ft | 173 kts | 232° |
| 2026-05-06 16:44 | -34.82190 | 138.71892 | 3774 ft | 171 kts | 230° |
| 2026-05-06 16:44 | -34.82876 | 138.70731 | 3537 ft | 168 kts | 227° |
| 2026-05-06 16:44 | -34.83594 | 138.69632 | 3290 ft | 164 kts | 225° |
| 2026-05-06 16:45 | -34.84534 | 138.68242 | 3001 ft | 160 kts | 225° |
| 2026-05-06 16:45 | -34.85022 | 138.67529 | 2865 ft | 164 kts | 224° |
| 2026-05-06 16:45 | -34.85729 | 138.66500 | 2648 ft | 167 kts | 225° |
| 2026-05-06 16:45 | -34.86328 | 138.65626 | 2467 ft | 167 kts | 226° |
| 2026-05-06 16:46 | -34.87068 | 138.64544 | 2220 ft | 166 kts | 225° |
| 2026-05-06 16:46 | -34.87801 | 138.63476 | 1992 ft | 161 kts | 226° |
| 2026-05-06 16:46 | -34.88493 | 138.62465 | 1756 ft | 148 kts | 226° |
| 2026-05-06 16:46 | -34.89153 | 138.61503 | 1573 ft | 149 kts | 226° |
| 2026-05-06 16:47 | -34.89800 | 138.60559 | 1397 ft | 141 kts | 226° |
| 2026-05-06 16:47 | -34.90411 | 138.59666 | 1171 ft | 134 kts | 226° |
| 2026-05-06 16:47 | -34.91016 | 138.58784 | 1011 ft | 136 kts | 226° |
| 2026-05-06 16:47 | -34.91630 | 138.57888 | 810 ft | 140 kts | 226° |
| 2026-05-06 16:48 | -34.92269 | 138.56972 | 604 ft | 143 kts | 226° |
| 2026-05-06 16:48 | -34.92904 | 138.56051 | 409 ft | 142 kts | 230° |
| 2026-05-06 16:48 | -34.93505 | 138.55113 | 222 ft | 140 kts | 226° |
| 2026-05-06 16:48 | -34.94136 | 138.54212 | 39 ft | 141 kts | 226° |
| 2026-05-06 16:49 | -34.94708 | 138.53391 | 31 ft | 108 kts | 230° |
| 2026-05-06 16:49 | -34.95083 | 138.52838 | 31 ft | 49 kts | 230° |
| 2026-05-06 16:49 | -34.95219 | 138.52642 | 31 ft | 14 kts | 231° |
| 2026-05-06 16:49 | -34.95209 | 138.52538 | 31 ft | 14 kts | 308° |
| 2026-05-06 16:50 | -34.95131 | 138.52465 | 31 ft | 14 kts | 334° |
| 2026-05-06 16:50 | -34.95035 | 138.52459 | 31 ft | 15 kts | 20° |
| 2026-05-06 16:50 | -34.94950 | 138.52530 | 31 ft | 15 kts | 36° |
| 2026-05-06 16:50 | -34.94867 | 138.52605 | 31 ft | 15 kts | 37° |
| 2026-05-06 16:51 | -34.94786 | 138.52683 | 31 ft | 15 kts | 38° |
| 2026-05-06 16:51 | -34.94705 | 138.52761 | 31 ft | 15 kts | 37° |
| 2026-05-06 16:51 | -34.94621 | 138.52840 | 31 ft | 15 kts | 38° |
| 2026-05-06 16:51 | -34.94536 | 138.52918 | 31 ft | 15 kts | 37° |
| 2026-05-06 16:52 | -34.94457 | 138.53004 | 31 ft | 15 kts | 53° |
| 2026-05-06 16:52 | -34.94465 | 138.53125 | 31 ft | 16 kts | 122° |
| 2026-05-06 16:52 | -34.94516 | 138.53240 | 31 ft | 16 kts | 101° |
| 2026-05-06 16:52 | -34.94492 | 138.53364 | 31 ft | 16 kts | 49° |
| 2026-05-06 16:53 | -34.94419 | 138.53468 | 29 ft | 16 kts | 49° |
| 2026-05-06 16:53 | -34.94348 | 138.53573 | 31 ft | 16 kts | 51° |
| 2026-05-06 16:53 | -34.94264 | 138.53650 | 31 ft | 16 kts | 356° |
| 2026-05-06 16:53 | -34.94196 | 138.53647 | 31 ft | 9 kts | 12° |
| 2026-05-06 16:54 | -34.94139 | 138.53619 | 31 ft | 5 kts | 320° |
| 2026-05-06 16:54 | -34.94118 | 138.53598 | 31 ft | 0 kts | 320° |